EZY94BK EGGD-LCPH
Flight info
| Callsign | EZY94BK |
|---|---|
| Flight time | 4h 19m |
| Altitude | 35000 |
| Route | YORQI DCT NUCHU L607 BIG L15 MOTOX DCT RUCAC DCT LESDO DCT BUBLI DCT LUVAL DCT MIRGU DCT BEGAR DCT TRA DCT GAMSA DCT GEDSO DCT VEKEN DCT ALIVO DCT RASTU DCT GLOMY DCT POD DCT RINAV DCT BONZI DCT BITLA DCT AKINA DCT LINRO UL52 VAXOS UM978 TOSKA DCT TOBAL |
| Aircraft | A320/M-SDE2E3FGHIJ1RWXYZ/LB1 |
Departure
| Time | 2026-05-05 11:48 |
|---|---|
| Airport | Bristol Airport (EGGD) |
Arrival
| Time | 2026-05-05 16:07 |
|---|---|
| Airport | Paphos International Airport (LCPH) |
| Time | Latitude | Longitude | Altitude | Speed | Heading |
|---|---|---|---|---|---|
| 2026-05-05 11:31 | 51.38527 | -2.71948 | 602 ft | 0 kts | 266° |
| 2026-05-05 11:38 | 51.38527 | -2.71943 | 602 ft | 2 kts | 266° |
| 2026-05-05 11:38 | 51.38528 | -2.71918 | 602 ft | 2 kts | 266° |
| 2026-05-05 11:39 | 51.38528 | -2.71901 | 602 ft | 0 kts | 266° |
| 2026-05-05 11:39 | 51.38532 | -2.71878 | 602 ft | 2 kts | 233° |
| 2026-05-05 11:39 | 51.38544 | -2.71861 | 601 ft | 2 kts | 200° |
| 2026-05-05 11:39 | 51.38554 | -2.71858 | 601 ft | 0 kts | 179° |
| 2026-05-05 11:40 | 51.38562 | -2.71859 | 601 ft | 0 kts | 176° |
| 2026-05-05 11:43 | 51.38560 | -2.71859 | 601 ft | 1 kts | 176° |
| 2026-05-05 11:43 | 51.38533 | -2.71856 | 602 ft | 4 kts | 177° |
| 2026-05-05 11:43 | 51.38503 | -2.71855 | 602 ft | 4 kts | 178° |
| 2026-05-05 11:44 | 51.38475 | -2.71853 | 603 ft | 4 kts | 178° |
| 2026-05-05 11:44 | 51.38442 | -2.71861 | 603 ft | 5 kts | 211° |
| 2026-05-05 11:44 | 51.38428 | -2.71928 | 604 ft | 9 kts | 269° |
| 2026-05-05 11:44 | 51.38427 | -2.72066 | 605 ft | 12 kts | 270° |
| 2026-05-05 11:45 | 51.38425 | -2.72195 | 608 ft | 10 kts | 268° |
| 2026-05-05 11:45 | 51.38421 | -2.72311 | 610 ft | 10 kts | 265° |
| 2026-05-05 11:45 | 51.38414 | -2.72447 | 612 ft | 13 kts | 265° |
| 2026-05-05 11:45 | 51.38408 | -2.72604 | 612 ft | 15 kts | 266° |
| 2026-05-05 11:46 | 51.38402 | -2.72778 | 611 ft | 16 kts | 267° |
| 2026-05-05 11:46 | 51.38396 | -2.72979 | 606 ft | 18 kts | 266° |
| 2026-05-05 11:46 | 51.38384 | -2.73205 | 599 ft | 18 kts | 265° |
| 2026-05-05 11:46 | 51.38300 | -2.73339 | 595 ft | 19 kts | 176° |
| 2026-05-05 11:47 | 51.38211 | -2.73243 | 601 ft | 14 kts | 86° |
| 2026-05-05 11:47 | 51.38227 | -2.72911 | 615 ft | 61 kts | 86° |
| 2026-05-05 11:47 | 51.38272 | -2.71814 | 606 ft | 128 kts | 85° |
| 2026-05-05 11:47 | 51.38337 | -2.70165 | 886 ft | 152 kts | 83° |
| 2026-05-05 11:48 | 51.38441 | -2.66691 | 2107 ft | 156 kts | 83° |
| 2026-05-05 11:48 | 51.38493 | -2.64923 | 2598 ft | 162 kts | 82° |
| 2026-05-05 11:48 | 51.38557 | -2.62973 | 2921 ft | 178 kts | 82° |
| 2026-05-05 11:49 | 51.38628 | -2.60845 | 3237 ft | 196 kts | 82° |
| 2026-05-05 11:49 | 51.38705 | -2.58497 | 3579 ft | 215 kts | 82° |
| 2026-05-05 11:49 | 51.38881 | -2.55954 | 3897 ft | 235 kts | 74° |
| 2026-05-05 11:49 | 51.39467 | -2.53392 | 4307 ft | 247 kts | 50° |
| 2026-05-05 11:50 | 51.40798 | -2.51593 | 4797 ft | 253 kts | 19° |
| 2026-05-05 11:50 | 51.42473 | -2.50779 | 5486 ft | 255 kts | 11° |
| 2026-05-05 11:50 | 51.43943 | -2.50089 | 6030 ft | 261 kts | 15° |
| 2026-05-05 11:50 | 51.45543 | -2.48972 | 6847 ft | 264 kts | 22° |
| 2026-05-05 11:51 | 51.47422 | -2.47326 | 7673 ft | 272 kts | 24° |
| 2026-05-05 11:51 | 51.49074 | -2.45751 | 8352 ft | 278 kts | 25° |
| 2026-05-05 11:51 | 51.50705 | -2.43973 | 8997 ft | 291 kts | 38° |
| 2026-05-05 11:51 | 51.51851 | -2.41126 | 9605 ft | 309 kts | 70° |
| 2026-05-05 11:52 | 51.52050 | -2.37663 | 10245 ft | 318 kts | 94° |
| 2026-05-05 11:52 | 51.51813 | -2.34156 | 10695 ft | 330 kts | 99° |
| 2026-05-05 11:52 | 51.51483 | -2.30318 | 11019 ft | 348 kts | 99° |
| 2026-05-05 11:52 | 51.51152 | -2.26363 | 11548 ft | 357 kts | 99° |
| 2026-05-05 11:53 | 51.50843 | -2.22378 | 12250 ft | 359 kts | 99° |
| 2026-05-05 11:53 | 51.50568 | -2.18664 | 12861 ft | 363 kts | 99° |
| 2026-05-05 11:53 | 51.50265 | -2.14484 | 13478 ft | 368 kts | 99° |
| 2026-05-05 11:53 | 51.49967 | -2.10307 | 14074 ft | 373 kts | 99° |
| 2026-05-05 11:54 | 51.49670 | -2.06120 | 14654 ft | 378 kts | 99° |
| 2026-05-05 11:54 | 51.49368 | -2.01842 | 15228 ft | 384 kts | 99° |
| 2026-05-05 11:54 | 51.49065 | -1.97577 | 15782 ft | 389 kts | 99° |
| 2026-05-05 11:54 | 51.48747 | -1.93126 | 16344 ft | 394 kts | 100° |
| 2026-05-05 11:55 | 51.48430 | -1.88716 | 16885 ft | 398 kts | 100° |
| 2026-05-05 11:55 | 51.48108 | -1.84253 | 17424 ft | 403 kts | 100° |
| 2026-05-05 11:55 | 51.47781 | -1.79756 | 17953 ft | 407 kts | 100° |
| 2026-05-05 11:55 | 51.47449 | -1.75222 | 18470 ft | 412 kts | 100° |
| 2026-05-05 11:56 | 51.47113 | -1.70631 | 18978 ft | 416 kts | 101° |
| 2026-05-05 11:56 | 51.46683 | -1.66049 | 19473 ft | 418 kts | 105° |
| 2026-05-05 11:56 | 51.46091 | -1.61432 | 19969 ft | 421 kts | 107° |
| 2026-05-05 11:56 | 51.45442 | -1.56755 | 20457 ft | 425 kts | 107° |
| 2026-05-05 11:57 | 51.44790 | -1.52102 | 20930 ft | 429 kts | 107° |
| 2026-05-05 11:57 | 51.44133 | -1.47491 | 21388 ft | 433 kts | 108° |
| 2026-05-05 11:57 | 51.43424 | -1.42752 | 21850 ft | 436 kts | 109° |
| 2026-05-05 11:57 | 51.42707 | -1.38035 | 22295 ft | 440 kts | 109° |
| 2026-05-05 11:58 | 51.41973 | -1.33218 | 22732 ft | 444 kts | 110° |
| 2026-05-05 11:58 | 51.41232 | -1.28340 | 23162 ft | 447 kts | 110° |
| 2026-05-05 11:58 | 51.40495 | -1.23499 | 23570 ft | 451 kts | 110° |
| 2026-05-05 11:58 | 51.39750 | -1.18616 | 23964 ft | 454 kts | 110° |
| 2026-05-05 11:59 | 51.38995 | -1.13687 | 24345 ft | 458 kts | 110° |
| 2026-05-05 11:59 | 51.38230 | -1.08713 | 24705 ft | 462 kts | 110° |
| 2026-05-05 11:59 | 51.37459 | -1.03716 | 25051 ft | 466 kts | 110° |
| 2026-05-05 11:59 | 51.36678 | -0.98667 | 25387 ft | 470 kts | 110° |
| 2026-05-05 12:00 | 51.35882 | -0.93536 | 25716 ft | 475 kts | 110° |
| 2026-05-05 12:00 | 51.35089 | -0.88441 | 26045 ft | 478 kts | 110° |
| 2026-05-05 12:00 | 51.34274 | -0.83216 | 26387 ft | 482 kts | 110° |
| 2026-05-05 12:00 | 51.33456 | -0.77986 | 26721 ft | 485 kts | 110° |
| 2026-05-05 12:01 | 51.32637 | -0.72769 | 27043 ft | 488 kts | 110° |
| 2026-05-05 12:01 | 51.31810 | -0.67519 | 27357 ft | 491 kts | 110° |
| 2026-05-05 12:01 | 51.30969 | -0.62196 | 27666 ft | 494 kts | 110° |
| 2026-05-05 12:01 | 51.30112 | -0.56800 | 27971 ft | 498 kts | 110° |
| 2026-05-05 12:02 | 51.29251 | -0.51386 | 28266 ft | 501 kts | 110° |
| 2026-05-05 12:02 | 51.28389 | -0.45993 | 28554 ft | 504 kts | 110° |
| 2026-05-05 12:02 | 51.27511 | -0.40509 | 28841 ft | 507 kts | 110° |
| 2026-05-05 12:02 | 51.26638 | -0.35075 | 29120 ft | 510 kts | 110° |
| 2026-05-05 12:03 | 51.25745 | -0.29516 | 29393 ft | 512 kts | 111° |
| 2026-05-05 12:03 | 51.24864 | -0.24040 | 29738 ft | 512 kts | 111° |
| 2026-05-05 12:03 | 51.23973 | -0.18521 | 30102 ft | 512 kts | 111° |
| 2026-05-05 12:03 | 51.23082 | -0.13031 | 30436 ft | 512 kts | 112° |
| 2026-05-05 12:04 | 51.22177 | -0.07487 | 30751 ft | 513 kts | 112° |
| 2026-05-05 12:04 | 51.21277 | -0.02000 | 31058 ft | 513 kts | 112° |
| 2026-05-05 12:04 | 51.20348 | 0.03651 | 31372 ft | 514 kts | 112° |
| 2026-05-05 12:04 | 51.19444 | 0.09129 | 31670 ft | 514 kts | 112° |
| 2026-05-05 12:05 | 51.18517 | 0.14727 | 31964 ft | 515 kts | 112° |
| 2026-05-05 12:05 | 51.17605 | 0.20216 | 32245 ft | 515 kts | 112° |
| 2026-05-05 12:05 | 51.16679 | 0.25772 | 32522 ft | 516 kts | 112° |
| 2026-05-05 12:05 | 51.15749 | 0.31334 | 32792 ft | 516 kts | 112° |
| 2026-05-05 12:06 | 51.14805 | 0.36963 | 33059 ft | 517 kts | 112° |
| 2026-05-05 12:06 | 51.13872 | 0.42511 | 33314 ft | 517 kts | 112° |
| 2026-05-05 12:06 | 51.12926 | 0.48114 | 33567 ft | 518 kts | 112° |
| 2026-05-05 12:06 | 51.11985 | 0.53668 | 33789 ft | 519 kts | 113° |
| 2026-05-05 12:07 | 51.11020 | 0.59339 | 33986 ft | 520 kts | 113° |
| 2026-05-05 12:07 | 51.10061 | 0.64957 | 34177 ft | 522 kts | 113° |
| 2026-05-05 12:07 | 51.09115 | 0.70506 | 34364 ft | 523 kts | 114° |
| 2026-05-05 12:07 | 51.08144 | 0.76194 | 34560 ft | 523 kts | 114° |
| 2026-05-05 12:08 | 51.07178 | 0.81824 | 34740 ft | 523 kts | 114° |
| 2026-05-05 12:08 | 51.06197 | 0.87512 | 34907 ft | 524 kts | 114° |
| 2026-05-05 12:08 | 51.04259 | 0.98672 | 34944 ft | 526 kts | 114° |
| 2026-05-05 12:09 | 51.02300 | 1.09879 | 34951 ft | 524 kts | 113° |
| 2026-05-05 12:09 | 51.00308 | 1.21199 | 34952 ft | 522 kts | 112° |
| 2026-05-05 12:10 | 50.98339 | 1.32329 | 34951 ft | 520 kts | 112° |
| 2026-05-05 12:10 | 50.96349 | 1.43453 | 34945 ft | 517 kts | 113° |
| 2026-05-05 12:11 | 50.93860 | 1.54103 | 34939 ft | 508 kts | 120° |
| 2026-05-05 12:11 | 50.91001 | 1.64297 | 34929 ft | 503 kts | 123° |
| 2026-05-05 12:12 | 50.87540 | 1.73778 | 34925 ft | 489 kts | 134° |
| 2026-05-05 12:12 | 50.83286 | 1.81938 | 34922 ft | 475 kts | 145° |
| 2026-05-05 12:13 | 50.78513 | 1.89130 | 34922 ft | 471 kts | 147° |
| 2026-05-05 12:13 | 50.73698 | 1.96253 | 34921 ft | 471 kts | 147° |
| 2026-05-05 12:14 | 50.68901 | 2.03406 | 34922 ft | 472 kts | 147° |
| 2026-05-05 12:14 | 50.64099 | 2.10577 | 34921 ft | 472 kts | 147° |
| 2026-05-05 12:15 | 50.59297 | 2.17734 | 34921 ft | 472 kts | 147° |
| 2026-05-05 12:15 | 50.54492 | 2.24876 | 34921 ft | 472 kts | 147° |
| 2026-05-05 12:16 | 50.49695 | 2.31987 | 34921 ft | 472 kts | 147° |
| 2026-05-05 12:16 | 50.44878 | 2.39105 | 34916 ft | 472 kts | 147° |
| 2026-05-05 12:17 | 50.40097 | 2.46149 | 34910 ft | 472 kts | 147° |
| 2026-05-05 12:17 | 50.35302 | 2.53193 | 34903 ft | 472 kts | 147° |
| 2026-05-05 12:18 | 50.30480 | 2.60257 | 34899 ft | 472 kts | 147° |
| 2026-05-05 12:18 | 50.25663 | 2.67300 | 34894 ft | 472 kts | 147° |
| 2026-05-05 12:19 | 50.20871 | 2.74312 | 34895 ft | 471 kts | 148° |
| 2026-05-05 12:19 | 50.16061 | 2.81312 | 34896 ft | 471 kts | 148° |
| 2026-05-05 12:20 | 50.11215 | 2.88329 | 34896 ft | 471 kts | 148° |
| 2026-05-05 12:20 | 50.06404 | 2.95267 | 34895 ft | 471 kts | 147° |
| 2026-05-05 12:21 | 50.01537 | 3.02267 | 34895 ft | 473 kts | 147° |
| 2026-05-05 12:21 | 49.96669 | 3.09253 | 34895 ft | 474 kts | 146° |
| 2026-05-05 12:22 | 49.91809 | 3.16211 | 34896 ft | 474 kts | 146° |
| 2026-05-05 12:22 | 49.86990 | 3.23075 | 34896 ft | 474 kts | 146° |
| 2026-05-05 12:23 | 49.81963 | 3.29805 | 34894 ft | 468 kts | 152° |
| 2026-05-05 12:23 | 49.76619 | 3.35319 | 34894 ft | 456 kts | 161° |
| 2026-05-05 12:24 | 49.71059 | 3.39880 | 34897 ft | 453 kts | 163° |
| 2026-05-05 12:24 | 49.65427 | 3.44431 | 34903 ft | 454 kts | 162° |
| 2026-05-05 12:25 | 49.59866 | 3.48946 | 34915 ft | 454 kts | 162° |
| 2026-05-05 12:25 | 49.54269 | 3.53491 | 34930 ft | 454 kts | 162° |
| 2026-05-05 12:26 | 49.48636 | 3.58057 | 34949 ft | 454 kts | 162° |
| 2026-05-05 12:26 | 49.43035 | 3.62587 | 34965 ft | 454 kts | 162° |
| 2026-05-05 12:27 | 49.37461 | 3.67092 | 34973 ft | 453 kts | 163° |
| 2026-05-05 12:27 | 49.31891 | 3.71603 | 34979 ft | 453 kts | 163° |
| 2026-05-05 12:28 | 49.26312 | 3.76091 | 34982 ft | 452 kts | 163° |
| 2026-05-05 12:28 | 49.20731 | 3.80562 | 34983 ft | 450 kts | 163° |
| 2026-05-05 12:29 | 49.15269 | 3.84923 | 34984 ft | 449 kts | 163° |
| 2026-05-05 12:29 | 49.09865 | 3.89219 | 34984 ft | 449 kts | 163° |
| 2026-05-05 12:30 | 49.04401 | 3.93540 | 34984 ft | 449 kts | 162° |
| 2026-05-05 12:30 | 48.98992 | 3.97820 | 34984 ft | 449 kts | 160° |
| 2026-05-05 12:31 | 48.93524 | 4.02148 | 34984 ft | 448 kts | 159° |
| 2026-05-05 12:31 | 48.88086 | 4.06447 | 34984 ft | 447 kts | 160° |
| 2026-05-05 12:32 | 48.82629 | 4.10872 | 34984 ft | 451 kts | 155° |
| 2026-05-05 12:32 | 48.77529 | 4.16504 | 34985 ft | 460 kts | 144° |
| 2026-05-05 12:33 | 48.73104 | 4.23543 | 34985 ft | 468 kts | 132° |
| 2026-05-05 12:33 | 48.69286 | 4.31587 | 34985 ft | 470 kts | 129° |
| 2026-05-05 12:34 | 48.65529 | 4.39711 | 34984 ft | 470 kts | 129° |
| 2026-05-05 12:34 | 48.61747 | 4.47772 | 34984 ft | 470 kts | 129° |
| 2026-05-05 12:35 | 48.57909 | 4.55887 | 34984 ft | 470 kts | 129° |
| 2026-05-05 12:35 | 48.54100 | 4.63908 | 34984 ft | 469 kts | 129° |
| 2026-05-05 12:36 | 48.50268 | 4.71978 | 34983 ft | 469 kts | 130° |
| 2026-05-05 12:36 | 48.46423 | 4.80045 | 34984 ft | 469 kts | 130° |
| 2026-05-05 12:37 | 48.42592 | 4.88036 | 34983 ft | 471 kts | 130° |
| 2026-05-05 12:37 | 48.38715 | 4.96094 | 34983 ft | 474 kts | 130° |
| 2026-05-05 12:38 | 48.34789 | 5.04233 | 34983 ft | 477 kts | 129° |
| 2026-05-05 12:38 | 48.31153 | 5.12727 | 34983 ft | 481 kts | 120° |
| 2026-05-05 12:39 | 48.28390 | 5.21849 | 34984 ft | 483 kts | 110° |
| 2026-05-05 12:39 | 48.26495 | 5.31509 | 34984 ft | 484 kts | 104° |
| 2026-05-05 12:40 | 48.24881 | 5.41113 | 34973 ft | 484 kts | 104° |
| 2026-05-05 12:40 | 48.23226 | 5.50732 | 34944 ft | 484 kts | 104° |
| 2026-05-05 12:41 | 48.21529 | 5.60401 | 34906 ft | 484 kts | 104° |
| 2026-05-05 12:41 | 48.19821 | 5.70055 | 34875 ft | 484 kts | 105° |
| 2026-05-05 12:42 | 48.18122 | 5.79608 | 34859 ft | 484 kts | 105° |
| 2026-05-05 12:42 | 48.16425 | 5.89090 | 34850 ft | 484 kts | 105° |
| 2026-05-05 12:43 | 48.14729 | 5.98503 | 34846 ft | 484 kts | 105° |
| 2026-05-05 12:43 | 48.13029 | 6.07890 | 34844 ft | 484 kts | 105° |
| 2026-05-05 12:44 | 48.11337 | 6.17192 | 34847 ft | 484 kts | 105° |
| 2026-05-05 12:44 | 48.09617 | 6.26590 | 34858 ft | 484 kts | 105° |
| 2026-05-05 12:45 | 48.07934 | 6.35741 | 34878 ft | 484 kts | 105° |
| 2026-05-05 12:46 | 48.04571 | 6.53874 | 34934 ft | 484 kts | 105° |
| 2026-05-05 12:46 | 48.02779 | 6.63461 | 34957 ft | 484 kts | 105° |
| 2026-05-05 12:47 | 48.01268 | 6.73352 | 34969 ft | 483 kts | 100° |
| 2026-05-05 12:47 | 48.00120 | 6.83131 | 34977 ft | 483 kts | 99° |
| 2026-05-05 12:48 | 47.98986 | 6.92748 | 34981 ft | 483 kts | 99° |
| 2026-05-05 12:48 | 47.97826 | 7.02353 | 34982 ft | 484 kts | 99° |
| 2026-05-05 12:49 | 47.96632 | 7.12095 | 34983 ft | 486 kts | 99° |
| 2026-05-05 12:49 | 47.95412 | 7.21998 | 34984 ft | 488 kts | 98° |
| 2026-05-05 12:50 | 47.94191 | 7.31872 | 34982 ft | 488 kts | 98° |
| 2026-05-05 12:50 | 47.92941 | 7.41868 | 34970 ft | 488 kts | 98° |
| 2026-05-05 12:51 | 47.91687 | 7.51811 | 34951 ft | 488 kts | 98° |
| 2026-05-05 12:51 | 47.90044 | 7.61652 | 34933 ft | 490 kts | 107° |
| 2026-05-05 12:52 | 47.87669 | 7.71190 | 34912 ft | 490 kts | 111° |
| 2026-05-05 12:52 | 47.85205 | 7.80667 | 34892 ft | 490 kts | 111° |
| 2026-05-05 12:53 | 47.82762 | 7.90180 | 34870 ft | 491 kts | 110° |
| 2026-05-05 12:53 | 47.80325 | 7.99712 | 34857 ft | 493 kts | 110° |
| 2026-05-05 12:54 | 47.76662 | 8.13974 | 34854 ft | 493 kts | 110° |
| 2026-05-05 12:55 | 47.74187 | 8.23560 | 34859 ft | 493 kts | 110° |
| 2026-05-05 12:55 | 47.71724 | 8.33059 | 34863 ft | 493 kts | 110° |
| 2026-05-05 12:56 | 47.69255 | 8.42547 | 34865 ft | 493 kts | 110° |
| 2026-05-05 12:56 | 47.67005 | 8.52212 | 34867 ft | 493 kts | 107° |
| 2026-05-05 12:57 | 47.64829 | 8.61903 | 34867 ft | 493 kts | 107° |
| 2026-05-05 12:57 | 47.62673 | 8.71453 | 34866 ft | 493 kts | 108° |
| 2026-05-05 12:58 | 47.60475 | 8.81114 | 34867 ft | 493 kts | 108° |
| 2026-05-05 12:58 | 47.58266 | 8.90750 | 34867 ft | 493 kts | 108° |
| 2026-05-05 12:59 | 47.56042 | 9.00372 | 34867 ft | 494 kts | 107° |
| 2026-05-05 12:59 | 47.53816 | 9.09975 | 34867 ft | 495 kts | 106° |
| 2026-05-05 13:00 | 47.50448 | 9.24479 | 34868 ft | 495 kts | 106° |
| 2026-05-05 13:01 | 47.45956 | 9.43656 | 34868 ft | 495 kts | 106° |
| 2026-05-05 13:01 | 47.43718 | 9.53131 | 34868 ft | 495 kts | 106° |
| 2026-05-05 13:02 | 47.41483 | 9.62656 | 34867 ft | 494 kts | 104° |
| 2026-05-05 13:02 | 47.39815 | 9.72295 | 34867 ft | 490 kts | 97° |
| 2026-05-05 13:03 | 47.38482 | 9.82152 | 34867 ft | 490 kts | 97° |
| 2026-05-05 13:03 | 47.37143 | 9.91984 | 34868 ft | 491 kts | 97° |
| 2026-05-05 13:04 | 47.35775 | 10.01803 | 34867 ft | 491 kts | 97° |
| 2026-05-05 13:04 | 47.34390 | 10.11612 | 34868 ft | 491 kts | 97° |
| 2026-05-05 13:05 | 47.32981 | 10.21524 | 34865 ft | 491 kts | 97° |
| 2026-05-05 13:05 | 47.31585 | 10.31281 | 34859 ft | 491 kts | 97° |
| 2026-05-05 13:06 | 47.30164 | 10.41155 | 34852 ft | 491 kts | 97° |
| 2026-05-05 13:06 | 47.28729 | 10.51058 | 34846 ft | 491 kts | 97° |
| 2026-05-05 13:07 | 47.27292 | 10.60911 | 34844 ft | 491 kts | 97° |
| 2026-05-05 13:07 | 47.25851 | 10.70735 | 34840 ft | 491 kts | 98° |
| 2026-05-05 13:08 | 47.24410 | 10.80515 | 34840 ft | 491 kts | 98° |
| 2026-05-05 13:08 | 47.22936 | 10.90381 | 34841 ft | 491 kts | 97° |
| 2026-05-05 13:09 | 47.21455 | 11.00242 | 34841 ft | 491 kts | 96° |
| 2026-05-05 13:09 | 47.19984 | 11.10031 | 34841 ft | 490 kts | 96° |
| 2026-05-05 13:10 | 47.18505 | 11.19845 | 34841 ft | 489 kts | 96° |
| 2026-05-05 13:10 | 47.17030 | 11.29537 | 34842 ft | 489 kts | 96° |
| 2026-05-05 13:11 | 47.15534 | 11.39294 | 34841 ft | 489 kts | 96° |
| 2026-05-05 13:11 | 47.14034 | 11.49014 | 34841 ft | 489 kts | 96° |
| 2026-05-05 13:12 | 47.12511 | 11.58824 | 34842 ft | 489 kts | 96° |
| 2026-05-05 13:12 | 47.10975 | 11.68642 | 34839 ft | 489 kts | 97° |
| 2026-05-05 13:13 | 47.09445 | 11.78374 | 34841 ft | 490 kts | 97° |
| 2026-05-05 13:13 | 47.07544 | 11.88036 | 34854 ft | 496 kts | 105° |
| 2026-05-05 13:14 | 47.04723 | 11.97408 | 34890 ft | 500 kts | 112° |
| 2026-05-05 13:14 | 47.01586 | 12.06612 | 34938 ft | 499 kts | 112° |
| 2026-05-05 13:15 | 46.98494 | 12.15716 | 34973 ft | 496 kts | 112° |
| 2026-05-05 13:15 | 46.95420 | 12.24813 | 34991 ft | 493 kts | 112° |
| 2026-05-05 13:16 | 46.92373 | 12.33824 | 35000 ft | 490 kts | 111° |
| 2026-05-05 13:16 | 46.89348 | 12.42738 | 35000 ft | 487 kts | 112° |
| 2026-05-05 13:17 | 46.86289 | 12.51631 | 35002 ft | 485 kts | 112° |
| 2026-05-05 13:17 | 46.83255 | 12.60470 | 35003 ft | 485 kts | 111° |
| 2026-05-05 13:18 | 46.80222 | 12.69321 | 35003 ft | 485 kts | 112° |
| 2026-05-05 13:18 | 46.77199 | 12.78139 | 35003 ft | 484 kts | 112° |
| 2026-05-05 13:19 | 46.74130 | 12.87045 | 35004 ft | 485 kts | 112° |
| 2026-05-05 13:19 | 46.71092 | 12.95820 | 35003 ft | 485 kts | 112° |
| 2026-05-05 13:20 | 46.68028 | 13.04617 | 35005 ft | 485 kts | 111° |
| 2026-05-05 13:20 | 46.64955 | 13.13422 | 35012 ft | 486 kts | 110° |
| 2026-05-05 13:21 | 46.61898 | 13.22164 | 35020 ft | 486 kts | 109° |
| 2026-05-05 13:21 | 46.58727 | 13.30924 | 35025 ft | 490 kts | 113° |
| 2026-05-05 13:22 | 46.54830 | 13.39153 | 35029 ft | 498 kts | 123° |
| 2026-05-05 13:22 | 46.50079 | 13.46548 | 35030 ft | 504 kts | 132° |
| 2026-05-05 13:23 | 46.44855 | 13.53430 | 35029 ft | 504 kts | 133° |
| 2026-05-05 13:23 | 46.39654 | 13.60265 | 35027 ft | 504 kts | 133° |
| 2026-05-05 13:24 | 46.34490 | 13.67111 | 35027 ft | 504 kts | 134° |
| 2026-05-05 13:24 | 46.29337 | 13.73971 | 35029 ft | 505 kts | 134° |
| 2026-05-05 13:25 | 46.24150 | 13.80844 | 35026 ft | 505 kts | 134° |
| 2026-05-05 13:25 | 46.18969 | 13.87680 | 35022 ft | 505 kts | 134° |
| 2026-05-05 13:26 | 46.13760 | 13.94531 | 35020 ft | 505 kts | 134° |
| 2026-05-05 13:26 | 46.08568 | 14.01342 | 35020 ft | 504 kts | 134° |
| 2026-05-05 13:27 | 46.03354 | 14.08166 | 35020 ft | 505 kts | 134° |
| 2026-05-05 13:27 | 45.98150 | 14.14955 | 35017 ft | 504 kts | 134° |
| 2026-05-05 13:28 | 45.92934 | 14.21742 | 35012 ft | 504 kts | 134° |
| 2026-05-05 13:28 | 45.87700 | 14.28532 | 35003 ft | 505 kts | 134° |
| 2026-05-05 13:29 | 45.82452 | 14.35285 | 35005 ft | 506 kts | 134° |
| 2026-05-05 13:29 | 45.77197 | 14.42052 | 35005 ft | 506 kts | 134° |
| 2026-05-05 13:30 | 45.71947 | 14.48812 | 35006 ft | 506 kts | 134° |
| 2026-05-05 13:30 | 45.66701 | 14.55553 | 35009 ft | 506 kts | 134° |
| 2026-05-05 13:31 | 45.61453 | 14.62279 | 35015 ft | 506 kts | 134° |
| 2026-05-05 13:31 | 45.56206 | 14.68997 | 35021 ft | 506 kts | 135° |
| 2026-05-05 13:32 | 45.51157 | 14.76025 | 35026 ft | 502 kts | 127° |
| 2026-05-05 13:32 | 45.46690 | 14.83725 | 35030 ft | 500 kts | 123° |
| 2026-05-05 13:33 | 45.42319 | 14.91474 | 35031 ft | 500 kts | 123° |
| 2026-05-05 13:33 | 45.37897 | 14.99225 | 35031 ft | 501 kts | 123° |
| 2026-05-05 13:34 | 45.33463 | 15.06948 | 35031 ft | 501 kts | 122° |
| 2026-05-05 13:34 | 45.29036 | 15.14634 | 35032 ft | 502 kts | 122° |
| 2026-05-05 13:35 | 45.24589 | 15.22346 | 35028 ft | 502 kts | 122° |
| 2026-05-05 13:35 | 45.20164 | 15.29994 | 35022 ft | 502 kts | 122° |
| 2026-05-05 13:36 | 45.15700 | 15.37682 | 35017 ft | 502 kts | 122° |
| 2026-05-05 13:36 | 45.11212 | 15.45387 | 35019 ft | 502 kts | 122° |
| 2026-05-05 13:37 | 45.06759 | 15.53006 | 35022 ft | 500 kts | 122° |
| 2026-05-05 13:37 | 45.02275 | 15.60662 | 35030 ft | 498 kts | 121° |
| 2026-05-05 13:38 | 44.97821 | 15.68253 | 35041 ft | 495 kts | 121° |
| 2026-05-05 13:38 | 44.93343 | 15.75671 | 35047 ft | 497 kts | 126° |
| 2026-05-05 13:39 | 44.88450 | 15.82772 | 35038 ft | 500 kts | 127° |
| 2026-05-05 13:39 | 44.83485 | 15.89797 | 35043 ft | 499 kts | 127° |
| 2026-05-05 13:40 | 44.78534 | 15.96831 | 35049 ft | 499 kts | 127° |
| 2026-05-05 13:40 | 44.73581 | 16.03881 | 35047 ft | 499 kts | 127° |
| 2026-05-05 13:41 | 44.68659 | 16.10880 | 35048 ft | 498 kts | 127° |
| 2026-05-05 13:41 | 44.63740 | 16.17862 | 35045 ft | 499 kts | 127° |
| 2026-05-05 13:42 | 44.58791 | 16.24863 | 35038 ft | 499 kts | 127° |
| 2026-05-05 13:42 | 44.53840 | 16.31850 | 35033 ft | 499 kts | 127° |
| 2026-05-05 13:43 | 44.48902 | 16.38799 | 35034 ft | 499 kts | 127° |
| 2026-05-05 13:43 | 44.43931 | 16.45782 | 35037 ft | 499 kts | 127° |
| 2026-05-05 13:44 | 44.38999 | 16.52689 | 35032 ft | 499 kts | 127° |
| 2026-05-05 13:44 | 44.34030 | 16.59628 | 35035 ft | 498 kts | 127° |
| 2026-05-05 13:45 | 44.29076 | 16.66536 | 35039 ft | 499 kts | 128° |
| 2026-05-05 13:45 | 44.24119 | 16.73452 | 35039 ft | 500 kts | 128° |
| 2026-05-05 13:46 | 44.19144 | 16.80366 | 35039 ft | 501 kts | 128° |
| 2026-05-05 13:46 | 44.14152 | 16.87269 | 35048 ft | 499 kts | 128° |
| 2026-05-05 13:47 | 44.09189 | 16.94110 | 35049 ft | 496 kts | 128° |
| 2026-05-05 13:47 | 44.04281 | 17.00865 | 35046 ft | 493 kts | 128° |
| 2026-05-05 13:48 | 43.99370 | 17.07605 | 35053 ft | 491 kts | 128° |
| 2026-05-05 13:48 | 43.94453 | 17.14338 | 35063 ft | 490 kts | 128° |
| 2026-05-05 13:49 | 43.89540 | 17.21044 | 35068 ft | 490 kts | 128° |
| 2026-05-05 13:49 | 43.84639 | 17.27682 | 35068 ft | 491 kts | 128° |
| 2026-05-05 13:50 | 43.79700 | 17.34371 | 35066 ft | 491 kts | 128° |
| 2026-05-05 13:50 | 43.74735 | 17.41097 | 35061 ft | 492 kts | 128° |
| 2026-05-05 13:51 | 43.69776 | 17.47798 | 35059 ft | 492 kts | 128° |
| 2026-05-05 13:51 | 43.64837 | 17.54470 | 35058 ft | 492 kts | 128° |
| 2026-05-05 13:52 | 43.59889 | 17.61131 | 35060 ft | 492 kts | 128° |
| 2026-05-05 13:52 | 43.54951 | 17.67792 | 35058 ft | 492 kts | 128° |
| 2026-05-05 13:53 | 43.50093 | 17.74585 | 35060 ft | 492 kts | 127° |
| 2026-05-05 13:53 | 43.45251 | 17.81363 | 35056 ft | 490 kts | 127° |
| 2026-05-05 13:54 | 43.40395 | 17.88128 | 35061 ft | 492 kts | 127° |
| 2026-05-05 13:54 | 43.35520 | 17.94881 | 35060 ft | 491 kts | 127° |
| 2026-05-05 13:55 | 43.30681 | 18.01568 | 35057 ft | 490 kts | 127° |
| 2026-05-05 13:55 | 43.25809 | 18.08289 | 35056 ft | 491 kts | 127° |
| 2026-05-05 13:56 | 43.20941 | 18.14987 | 35060 ft | 492 kts | 127° |
| 2026-05-05 13:56 | 43.16174 | 18.21526 | 35059 ft | 491 kts | 127° |
| 2026-05-05 13:57 | 43.11292 | 18.28211 | 35060 ft | 491 kts | 127° |
| 2026-05-05 13:57 | 43.06414 | 18.34873 | 35064 ft | 491 kts | 127° |
| 2026-05-05 13:58 | 43.01571 | 18.41468 | 35071 ft | 491 kts | 127° |
| 2026-05-05 13:58 | 42.96722 | 18.48061 | 35088 ft | 488 kts | 127° |
| 2026-05-05 13:59 | 42.89524 | 18.57807 | 35103 ft | 481 kts | 127° |
| 2026-05-05 14:00 | 42.82382 | 18.67406 | 35110 ft | 479 kts | 128° |
| 2026-05-05 14:00 | 42.77575 | 18.73889 | 35112 ft | 477 kts | 127° |
| 2026-05-05 14:01 | 42.72819 | 18.80292 | 35112 ft | 478 kts | 128° |
| 2026-05-05 14:01 | 42.68028 | 18.86718 | 35113 ft | 478 kts | 128° |
| 2026-05-05 14:02 | 42.63256 | 18.93098 | 35110 ft | 477 kts | 128° |
| 2026-05-05 14:02 | 42.58500 | 18.99452 | 35113 ft | 476 kts | 128° |
| 2026-05-05 14:03 | 42.53741 | 19.05807 | 35114 ft | 473 kts | 130° |
| 2026-05-05 14:03 | 42.49039 | 19.12051 | 35109 ft | 466 kts | 131° |
| 2026-05-05 14:04 | 42.44363 | 19.18242 | 35104 ft | 459 kts | 132° |
| 2026-05-05 14:04 | 42.39782 | 19.24289 | 35092 ft | 453 kts | 132° |
| 2026-05-05 14:05 | 42.35275 | 19.30257 | 35089 ft | 453 kts | 132° |
| 2026-05-05 14:05 | 42.30751 | 19.36262 | 35086 ft | 452 kts | 132° |
| 2026-05-05 14:06 | 42.26204 | 19.42286 | 35088 ft | 453 kts | 132° |
| 2026-05-05 14:06 | 42.21676 | 19.48266 | 35089 ft | 453 kts | 132° |
| 2026-05-05 14:07 | 42.17140 | 19.54242 | 35089 ft | 453 kts | 132° |
| 2026-05-05 14:07 | 42.12622 | 19.60184 | 35088 ft | 453 kts | 132° |
| 2026-05-05 14:08 | 42.08096 | 19.66124 | 35087 ft | 453 kts | 133° |
| 2026-05-05 14:08 | 42.03556 | 19.72092 | 35087 ft | 453 kts | 133° |
| 2026-05-05 14:09 | 41.99005 | 19.78051 | 35092 ft | 452 kts | 132° |
| 2026-05-05 14:09 | 41.94675 | 19.84276 | 35100 ft | 451 kts | 129° |
| 2026-05-05 14:10 | 41.90424 | 19.90536 | 35105 ft | 451 kts | 129° |
| 2026-05-05 14:10 | 41.86171 | 19.96731 | 35107 ft | 452 kts | 129° |
| 2026-05-05 14:11 | 41.81907 | 20.02922 | 35111 ft | 451 kts | 129° |
| 2026-05-05 14:11 | 41.77612 | 20.09172 | 35112 ft | 452 kts | 129° |
| 2026-05-05 14:12 | 41.73301 | 20.15437 | 35110 ft | 452 kts | 129° |
| 2026-05-05 14:12 | 41.69016 | 20.21648 | 35112 ft | 451 kts | 129° |
| 2026-05-05 14:13 | 41.64723 | 20.27864 | 35108 ft | 451 kts | 129° |
| 2026-05-05 14:13 | 41.60414 | 20.34089 | 35104 ft | 451 kts | 129° |
| 2026-05-05 14:14 | 41.56113 | 20.40285 | 35099 ft | 451 kts | 129° |
| 2026-05-05 14:14 | 41.51800 | 20.46483 | 35091 ft | 450 kts | 129° |
| 2026-05-05 14:15 | 41.47484 | 20.52575 | 35089 ft | 451 kts | 130° |
| 2026-05-05 14:15 | 41.43136 | 20.58687 | 35087 ft | 451 kts | 130° |
| 2026-05-05 14:16 | 41.38777 | 20.64802 | 35087 ft | 451 kts | 130° |
| 2026-05-05 14:16 | 41.34442 | 20.70898 | 35085 ft | 451 kts | 130° |
| 2026-05-05 14:17 | 41.30096 | 20.76996 | 35086 ft | 451 kts | 130° |
| 2026-05-05 14:17 | 41.25731 | 20.83096 | 35089 ft | 451 kts | 130° |
| 2026-05-05 14:18 | 41.21360 | 20.89184 | 35087 ft | 451 kts | 130° |
| 2026-05-05 14:18 | 41.17001 | 20.95265 | 35088 ft | 452 kts | 132° |
| 2026-05-05 14:19 | 41.12602 | 21.01374 | 35087 ft | 451 kts | 133° |
| 2026-05-05 14:19 | 41.08222 | 21.07439 | 35089 ft | 448 kts | 135° |
| 2026-05-05 14:20 | 41.03896 | 21.13420 | 35091 ft | 441 kts | 137° |
| 2026-05-05 14:20 | 40.99637 | 21.19282 | 35089 ft | 436 kts | 138° |
| 2026-05-05 14:21 | 40.95380 | 21.25125 | 35092 ft | 433 kts | 139° |
| 2026-05-05 14:21 | 40.91115 | 21.30957 | 35089 ft | 437 kts | 139° |
| 2026-05-05 14:22 | 40.86807 | 21.36836 | 35089 ft | 438 kts | 139° |
| 2026-05-05 14:22 | 40.82513 | 21.42663 | 35088 ft | 438 kts | 139° |
| 2026-05-05 14:23 | 40.78222 | 21.48484 | 35088 ft | 437 kts | 139° |
| 2026-05-05 14:23 | 40.73959 | 21.54265 | 35087 ft | 435 kts | 139° |
| 2026-05-05 14:24 | 40.69679 | 21.60058 | 35088 ft | 436 kts | 139° |
| 2026-05-05 14:24 | 40.65387 | 21.65860 | 35086 ft | 436 kts | 139° |
| 2026-05-05 14:25 | 40.61120 | 21.71643 | 35088 ft | 436 kts | 139° |
| 2026-05-05 14:25 | 40.56850 | 21.77413 | 35087 ft | 436 kts | 139° |
| 2026-05-05 14:26 | 40.52599 | 21.83132 | 35087 ft | 436 kts | 139° |
| 2026-05-05 14:26 | 40.48309 | 21.88887 | 35088 ft | 435 kts | 139° |
| 2026-05-05 14:27 | 40.44004 | 21.94646 | 35087 ft | 436 kts | 139° |
| 2026-05-05 14:27 | 40.39743 | 22.00340 | 35087 ft | 435 kts | 139° |
| 2026-05-05 14:28 | 40.35448 | 22.06066 | 35088 ft | 436 kts | 139° |
| 2026-05-05 14:28 | 40.31160 | 22.11771 | 35088 ft | 436 kts | 139° |
| 2026-05-05 14:29 | 40.26827 | 22.17524 | 35076 ft | 437 kts | 139° |
| 2026-05-05 14:29 | 40.22520 | 22.23235 | 35066 ft | 437 kts | 139° |
| 2026-05-05 14:30 | 40.18234 | 22.28903 | 35062 ft | 436 kts | 139° |
| 2026-05-05 14:30 | 40.13909 | 22.34616 | 35058 ft | 435 kts | 139° |
| 2026-05-05 14:31 | 40.09600 | 22.40295 | 35054 ft | 435 kts | 139° |
| 2026-05-05 14:31 | 40.05288 | 22.45967 | 35041 ft | 435 kts | 139° |
| 2026-05-05 14:32 | 40.00947 | 22.51664 | 35022 ft | 435 kts | 139° |
| 2026-05-05 14:32 | 39.96649 | 22.57297 | 35006 ft | 434 kts | 139° |
| 2026-05-05 14:33 | 39.92337 | 22.62936 | 34992 ft | 434 kts | 139° |
| 2026-05-05 14:33 | 39.88015 | 22.68584 | 34983 ft | 436 kts | 140° |
| 2026-05-05 14:34 | 39.83694 | 22.74206 | 34980 ft | 434 kts | 140° |
| 2026-05-05 14:34 | 39.79351 | 22.79850 | 34980 ft | 434 kts | 140° |
| 2026-05-05 14:35 | 39.75019 | 22.85471 | 34978 ft | 432 kts | 140° |
| 2026-05-05 14:35 | 39.70727 | 22.91032 | 34979 ft | 430 kts | 140° |
| 2026-05-05 14:36 | 39.66430 | 22.96586 | 34984 ft | 430 kts | 140° |
| 2026-05-05 14:36 | 39.62111 | 23.02160 | 34992 ft | 430 kts | 139° |
| 2026-05-05 14:37 | 39.57790 | 23.07726 | 34998 ft | 431 kts | 139° |
| 2026-05-05 14:37 | 39.53480 | 23.13270 | 35002 ft | 431 kts | 139° |
| 2026-05-05 14:38 | 39.49155 | 23.18823 | 35003 ft | 431 kts | 139° |
| 2026-05-05 14:38 | 39.44841 | 23.24351 | 35003 ft | 431 kts | 139° |
| 2026-05-05 14:39 | 39.40586 | 23.29793 | 35003 ft | 431 kts | 139° |
| 2026-05-05 14:39 | 39.36365 | 23.35182 | 35003 ft | 431 kts | 139° |
| 2026-05-05 14:40 | 39.32034 | 23.40701 | 35004 ft | 431 kts | 139° |
| 2026-05-05 14:40 | 39.27708 | 23.46202 | 35003 ft | 431 kts | 139° |
| 2026-05-05 14:41 | 39.23357 | 23.51726 | 35004 ft | 431 kts | 139° |
| 2026-05-05 14:41 | 39.19033 | 23.57205 | 35004 ft | 431 kts | 139° |
| 2026-05-05 14:42 | 39.14681 | 23.62711 | 35003 ft | 431 kts | 139° |
| 2026-05-05 14:42 | 39.10369 | 23.68167 | 35003 ft | 431 kts | 140° |
| 2026-05-05 14:43 | 39.06032 | 23.73662 | 35003 ft | 430 kts | 140° |
| 2026-05-05 14:43 | 39.01736 | 23.79077 | 35004 ft | 430 kts | 140° |
| 2026-05-05 14:44 | 38.97398 | 23.84527 | 35004 ft | 428 kts | 140° |
| 2026-05-05 14:44 | 38.93097 | 23.89920 | 35004 ft | 428 kts | 140° |
| 2026-05-05 14:45 | 38.88765 | 23.95333 | 35005 ft | 432 kts | 140° |
| 2026-05-05 14:45 | 38.84377 | 24.00782 | 35004 ft | 434 kts | 139° |
| 2026-05-05 14:46 | 38.80009 | 24.06213 | 35004 ft | 435 kts | 139° |
| 2026-05-05 14:46 | 38.75596 | 24.11700 | 35006 ft | 434 kts | 139° |
| 2026-05-05 14:47 | 38.71209 | 24.17148 | 35011 ft | 434 kts | 139° |
| 2026-05-05 14:47 | 38.66848 | 24.22555 | 35019 ft | 433 kts | 139° |
| 2026-05-05 14:48 | 38.62431 | 24.28023 | 35026 ft | 434 kts | 139° |
| 2026-05-05 14:48 | 38.58032 | 24.33459 | 35030 ft | 433 kts | 139° |
| 2026-05-05 14:49 | 38.53651 | 24.38861 | 35030 ft | 433 kts | 139° |
| 2026-05-05 14:49 | 38.49263 | 24.44265 | 35032 ft | 432 kts | 139° |
| 2026-05-05 14:50 | 38.44876 | 24.49656 | 35032 ft | 432 kts | 139° |
| 2026-05-05 14:50 | 38.40468 | 24.55064 | 35032 ft | 432 kts | 139° |
| 2026-05-05 14:51 | 38.36093 | 24.60420 | 35031 ft | 432 kts | 139° |
| 2026-05-05 14:51 | 38.31699 | 24.65793 | 35031 ft | 432 kts | 140° |
| 2026-05-05 14:52 | 38.27298 | 24.71194 | 35031 ft | 432 kts | 140° |
| 2026-05-05 14:52 | 38.22915 | 24.76550 | 35032 ft | 432 kts | 140° |
| 2026-05-05 14:53 | 38.18509 | 24.81914 | 35036 ft | 431 kts | 140° |
| 2026-05-05 14:53 | 38.14120 | 24.87244 | 35043 ft | 431 kts | 140° |
| 2026-05-05 14:54 | 38.09738 | 24.92553 | 35050 ft | 430 kts | 140° |
| 2026-05-05 14:54 | 38.05327 | 24.97890 | 35054 ft | 429 kts | 140° |
| 2026-05-05 14:55 | 38.00966 | 25.03155 | 35055 ft | 426 kts | 140° |
| 2026-05-05 14:55 | 37.96576 | 25.08445 | 35057 ft | 428 kts | 140° |
| 2026-05-05 14:56 | 37.92197 | 25.13712 | 35057 ft | 431 kts | 140° |
| 2026-05-05 14:56 | 37.87741 | 25.19052 | 35057 ft | 433 kts | 139° |
| 2026-05-05 14:57 | 37.83279 | 25.24373 | 35058 ft | 434 kts | 139° |
| 2026-05-05 14:57 | 37.78835 | 25.29682 | 35058 ft | 434 kts | 139° |
| 2026-05-05 14:58 | 37.74358 | 25.35030 | 35058 ft | 434 kts | 139° |
| 2026-05-05 14:58 | 37.69886 | 25.40363 | 35058 ft | 436 kts | 139° |
| 2026-05-05 14:59 | 37.65397 | 25.45709 | 35058 ft | 436 kts | 139° |
| 2026-05-05 14:59 | 37.60930 | 25.51019 | 35058 ft | 436 kts | 139° |
| 2026-05-05 15:00 | 37.57182 | 25.55468 | 35058 ft | 436 kts | 139° |
| 2026-05-05 15:00 | 37.51946 | 25.61671 | 35058 ft | 436 kts | 139° |
| 2026-05-05 15:01 | 37.47475 | 25.66964 | 35057 ft | 436 kts | 140° |
| 2026-05-05 15:01 | 37.42990 | 25.72289 | 35058 ft | 435 kts | 140° |
| 2026-05-05 15:02 | 37.38511 | 25.77580 | 35058 ft | 435 kts | 140° |
| 2026-05-05 15:02 | 37.34002 | 25.82888 | 35058 ft | 435 kts | 140° |
| 2026-05-05 15:03 | 37.29513 | 25.88160 | 35058 ft | 435 kts | 140° |
| 2026-05-05 15:03 | 37.24994 | 25.93458 | 35058 ft | 435 kts | 140° |
| 2026-05-05 15:04 | 37.20496 | 25.98722 | 35058 ft | 435 kts | 140° |
| 2026-05-05 15:04 | 37.15976 | 26.04004 | 35058 ft | 435 kts | 140° |
| 2026-05-05 15:05 | 37.09243 | 26.11852 | 35058 ft | 435 kts | 140° |
| 2026-05-05 15:06 | 37.04698 | 26.17140 | 35062 ft | 436 kts | 140° |
| 2026-05-05 15:06 | 37.00178 | 26.22388 | 35066 ft | 436 kts | 140° |
| 2026-05-05 15:07 | 36.95901 | 26.27969 | 35066 ft | 439 kts | 134° |
| 2026-05-05 15:07 | 36.91855 | 26.33880 | 35061 ft | 439 kts | 133° |
| 2026-05-05 15:08 | 36.87793 | 26.39796 | 35051 ft | 439 kts | 134° |
| 2026-05-05 15:08 | 36.83722 | 26.45683 | 35041 ft | 439 kts | 134° |
| 2026-05-05 15:09 | 36.79650 | 26.51576 | 35036 ft | 439 kts | 134° |
| 2026-05-05 15:09 | 36.75568 | 26.57484 | 35034 ft | 439 kts | 134° |
| 2026-05-05 15:10 | 36.71471 | 26.63406 | 35033 ft | 439 kts | 133° |
| 2026-05-05 15:10 | 36.67428 | 26.69259 | 35033 ft | 439 kts | 134° |
| 2026-05-05 15:11 | 36.63338 | 26.75177 | 35033 ft | 439 kts | 134° |
| 2026-05-05 15:11 | 36.59291 | 26.81006 | 35033 ft | 439 kts | 134° |
| 2026-05-05 15:12 | 36.55211 | 26.86865 | 35033 ft | 439 kts | 134° |
| 2026-05-05 15:12 | 36.51104 | 26.92751 | 35034 ft | 438 kts | 134° |
| 2026-05-05 15:13 | 36.47028 | 26.98578 | 35034 ft | 437 kts | 134° |
| 2026-05-05 15:13 | 36.42974 | 27.04367 | 35034 ft | 436 kts | 134° |
| 2026-05-05 15:14 | 36.38920 | 27.10147 | 35034 ft | 435 kts | 133° |
| 2026-05-05 15:14 | 36.34856 | 27.15932 | 35033 ft | 434 kts | 133° |
| 2026-05-05 15:15 | 36.30815 | 27.21674 | 35034 ft | 434 kts | 133° |
| 2026-05-05 15:15 | 36.26751 | 27.27438 | 35033 ft | 434 kts | 133° |
| 2026-05-05 15:16 | 36.22682 | 27.33200 | 35033 ft | 434 kts | 133° |
| 2026-05-05 15:16 | 36.18641 | 27.38913 | 35033 ft | 434 kts | 133° |
| 2026-05-05 15:17 | 36.14574 | 27.44650 | 35028 ft | 434 kts | 133° |
| 2026-05-05 15:17 | 36.10484 | 27.50412 | 35018 ft | 434 kts | 133° |
| 2026-05-05 15:18 | 36.06413 | 27.56136 | 35006 ft | 434 kts | 133° |
| 2026-05-05 15:18 | 36.02344 | 27.61846 | 34994 ft | 434 kts | 133° |
| 2026-05-05 15:19 | 35.98353 | 27.67445 | 34984 ft | 434 kts | 134° |
| 2026-05-05 15:19 | 35.94531 | 27.73454 | 34982 ft | 436 kts | 128° |
| 2026-05-05 15:20 | 35.90935 | 27.79660 | 34983 ft | 436 kts | 128° |
| 2026-05-05 15:20 | 35.87313 | 27.85867 | 34983 ft | 436 kts | 128° |
| 2026-05-05 15:21 | 35.83702 | 27.92020 | 34980 ft | 436 kts | 128° |
| 2026-05-05 15:21 | 35.80091 | 27.98186 | 34979 ft | 436 kts | 128° |
| 2026-05-05 15:22 | 35.76452 | 28.04397 | 34981 ft | 436 kts | 128° |
| 2026-05-05 15:22 | 35.72895 | 28.10459 | 34981 ft | 436 kts | 128° |
| 2026-05-05 15:23 | 35.69217 | 28.16718 | 34979 ft | 436 kts | 128° |
| 2026-05-05 15:23 | 35.65577 | 28.22900 | 34978 ft | 436 kts | 128° |
| 2026-05-05 15:24 | 35.61941 | 28.29059 | 34978 ft | 436 kts | 128° |
| 2026-05-05 15:24 | 35.58277 | 28.35246 | 34978 ft | 436 kts | 128° |
| 2026-05-05 15:25 | 35.54612 | 28.41427 | 34978 ft | 436 kts | 128° |
| 2026-05-05 15:25 | 35.51074 | 28.47385 | 34978 ft | 436 kts | 128° |
| 2026-05-05 15:26 | 35.49131 | 28.50652 | 34979 ft | 436 kts | 128° |
| 2026-05-05 15:26 | 35.46405 | 28.55233 | 34979 ft | 436 kts | 128° |
| 2026-05-05 15:27 | 35.42833 | 28.61226 | 34979 ft | 436 kts | 128° |
| 2026-05-05 15:27 | 35.39198 | 28.67319 | 34978 ft | 436 kts | 128° |
| 2026-05-05 15:28 | 35.36102 | 28.72522 | 34978 ft | 436 kts | 128° |
| 2026-05-05 15:28 | 35.32441 | 28.78647 | 34979 ft | 435 kts | 128° |
| 2026-05-05 15:29 | 35.28775 | 28.84762 | 34979 ft | 434 kts | 129° |
| 2026-05-05 15:29 | 35.25201 | 28.90713 | 34976 ft | 432 kts | 129° |
| 2026-05-05 15:30 | 35.21563 | 28.96754 | 34970 ft | 428 kts | 129° |
| 2026-05-05 15:30 | 35.17985 | 29.02684 | 34965 ft | 424 kts | 130° |
| 2026-05-05 15:31 | 35.14442 | 29.08541 | 34960 ft | 422 kts | 130° |
| 2026-05-05 15:31 | 35.10860 | 29.14452 | 34958 ft | 422 kts | 130° |
| 2026-05-05 15:32 | 35.07314 | 29.20296 | 34958 ft | 422 kts | 130° |
| 2026-05-05 15:32 | 35.03786 | 29.26168 | 34955 ft | 423 kts | 127° |
| 2026-05-05 15:33 | 35.01014 | 29.32438 | 34953 ft | 431 kts | 116° |
| 2026-05-05 15:33 | 34.99289 | 29.39575 | 34949 ft | 441 kts | 103° |
| 2026-05-05 15:34 | 34.98728 | 29.47208 | 34950 ft | 447 kts | 95° |
| 2026-05-05 15:34 | 34.98485 | 29.54911 | 34951 ft | 448 kts | 95° |
| 2026-05-05 15:35 | 34.98206 | 29.62643 | 34951 ft | 449 kts | 96° |
| 2026-05-05 15:35 | 34.97910 | 29.70183 | 34949 ft | 449 kts | 96° |
| 2026-05-05 15:36 | 34.97598 | 29.77994 | 34950 ft | 450 kts | 96° |
| 2026-05-05 15:36 | 34.97287 | 29.85697 | 34950 ft | 451 kts | 96° |
| 2026-05-05 15:37 | 34.96964 | 29.93426 | 34950 ft | 451 kts | 96° |
| 2026-05-05 15:37 | 34.96670 | 30.01278 | 34949 ft | 454 kts | 94° |
| 2026-05-05 15:38 | 34.96578 | 30.09189 | 34950 ft | 456 kts | 94° |
| 2026-05-05 15:38 | 34.96495 | 30.17051 | 34950 ft | 456 kts | 94° |
| 2026-05-05 15:39 | 34.96401 | 30.24927 | 34559 ft | 456 kts | 94° |
| 2026-05-05 15:39 | 34.96348 | 30.28920 | 33598 ft | 466 kts | 94° |
| 2026-05-05 15:39 | 34.96290 | 30.32993 | 32719 ft | 472 kts | 94° |
| 2026-05-05 15:39 | 34.96232 | 30.37132 | 32005 ft | 473 kts | 93° |
| 2026-05-05 15:40 | 34.96175 | 30.41205 | 31326 ft | 474 kts | 93° |
| 2026-05-05 15:40 | 34.96116 | 30.45319 | 30622 ft | 474 kts | 93° |
| 2026-05-05 15:40 | 34.96055 | 30.49421 | 29902 ft | 475 kts | 92° |
| 2026-05-05 15:40 | 34.95993 | 30.53570 | 29150 ft | 477 kts | 92° |
| 2026-05-05 15:41 | 34.95929 | 30.57683 | 28471 ft | 476 kts | 92° |
| 2026-05-05 15:41 | 34.95865 | 30.61852 | 27911 ft | 472 kts | 92° |
| 2026-05-05 15:41 | 34.95801 | 30.65907 | 27411 ft | 467 kts | 93° |
| 2026-05-05 15:41 | 34.95735 | 30.69972 | 26923 ft | 462 kts | 92° |
| 2026-05-05 15:42 | 34.95668 | 30.73972 | 26450 ft | 457 kts | 92° |
| 2026-05-05 15:42 | 34.95600 | 30.77924 | 25989 ft | 451 kts | 92° |
| 2026-05-05 15:42 | 34.95533 | 30.81786 | 25515 ft | 447 kts | 92° |
| 2026-05-05 15:42 | 34.95463 | 30.85649 | 25040 ft | 443 kts | 92° |
| 2026-05-05 15:43 | 34.95394 | 30.89462 | 24576 ft | 439 kts | 92° |
| 2026-05-05 15:43 | 34.95324 | 30.93262 | 24116 ft | 436 kts | 92° |
| 2026-05-05 15:43 | 34.95253 | 30.97038 | 23660 ft | 432 kts | 92° |
| 2026-05-05 15:43 | 34.95182 | 31.00754 | 23215 ft | 428 kts | 92° |
| 2026-05-05 15:44 | 34.95111 | 31.04472 | 22776 ft | 424 kts | 92° |
| 2026-05-05 15:44 | 34.95039 | 31.08099 | 22347 ft | 421 kts | 92° |
| 2026-05-05 15:44 | 34.94966 | 31.11798 | 21919 ft | 417 kts | 92° |
| 2026-05-05 15:44 | 34.94894 | 31.15368 | 21519 ft | 413 kts | 92° |
| 2026-05-05 15:45 | 34.94821 | 31.18891 | 21124 ft | 408 kts | 92° |
| 2026-05-05 15:45 | 34.94748 | 31.22431 | 20713 ft | 405 kts | 92° |
| 2026-05-05 15:45 | 34.94673 | 31.25944 | 20295 ft | 401 kts | 92° |
| 2026-05-05 15:45 | 34.94599 | 31.29414 | 19876 ft | 398 kts | 92° |
| 2026-05-05 15:46 | 34.94526 | 31.32795 | 19460 ft | 395 kts | 91° |
| 2026-05-05 15:46 | 34.94450 | 31.36244 | 19034 ft | 392 kts | 91° |
| 2026-05-05 15:46 | 34.94375 | 31.39610 | 18619 ft | 389 kts | 91° |
| 2026-05-05 15:46 | 34.94299 | 31.42985 | 18202 ft | 386 kts | 91° |
| 2026-05-05 15:47 | 34.94223 | 31.46322 | 17789 ft | 383 kts | 91° |
| 2026-05-05 15:47 | 34.94146 | 31.49629 | 17380 ft | 380 kts | 91° |
| 2026-05-05 15:47 | 34.94069 | 31.52945 | 16970 ft | 377 kts | 91° |
| 2026-05-05 15:47 | 34.93992 | 31.56217 | 16564 ft | 374 kts | 91° |
| 2026-05-05 15:48 | 34.93914 | 31.59484 | 16159 ft | 371 kts | 91° |
| 2026-05-05 15:48 | 34.93835 | 31.62719 | 15757 ft | 369 kts | 91° |
| 2026-05-05 15:48 | 34.93764 | 31.65645 | 15388 ft | 366 kts | 92° |
| 2026-05-05 15:48 | 34.93685 | 31.68844 | 14988 ft | 363 kts | 92° |
| 2026-05-05 15:49 | 34.93607 | 31.71997 | 14594 ft | 360 kts | 92° |
| 2026-05-05 15:49 | 34.93528 | 31.75132 | 14203 ft | 357 kts | 92° |
| 2026-05-05 15:49 | 34.93449 | 31.78208 | 13817 ft | 355 kts | 92° |
| 2026-05-05 15:49 | 34.93371 | 31.81246 | 13433 ft | 352 kts | 92° |
| 2026-05-05 15:50 | 34.93293 | 31.84238 | 13053 ft | 350 kts | 92° |
| 2026-05-05 15:50 | 34.93214 | 31.87224 | 12676 ft | 347 kts | 92° |
| 2026-05-05 15:50 | 34.93136 | 31.90151 | 12302 ft | 345 kts | 91° |
| 2026-05-05 15:50 | 34.93056 | 31.93137 | 11925 ft | 342 kts | 92° |
| 2026-05-05 15:51 | 34.92976 | 31.96068 | 11549 ft | 340 kts | 91° |
| 2026-05-05 15:51 | 34.92896 | 31.98983 | 11167 ft | 337 kts | 91° |
| 2026-05-05 15:51 | 34.92815 | 32.01881 | 10784 ft | 335 kts | 91° |
| 2026-05-05 15:51 | 34.92734 | 32.04761 | 10399 ft | 333 kts | 91° |
| 2026-05-05 15:52 | 34.92654 | 32.07589 | 10068 ft | 328 kts | 91° |
| 2026-05-05 15:52 | 34.92567 | 32.10362 | 10008 ft | 313 kts | 95° |
| 2026-05-05 15:52 | 34.92091 | 32.12910 | 9917 ft | 300 kts | 112° |
| 2026-05-05 15:52 | 34.91071 | 32.15174 | 9564 ft | 297 kts | 124° |
| 2026-05-05 15:53 | 34.89887 | 32.17278 | 9223 ft | 295 kts | 126° |
| 2026-05-05 15:53 | 34.88666 | 32.19373 | 8885 ft | 293 kts | 126° |
| 2026-05-05 15:53 | 34.87492 | 32.21401 | 8562 ft | 290 kts | 125° |
| 2026-05-05 15:53 | 34.86344 | 32.23415 | 8248 ft | 288 kts | 124° |
| 2026-05-05 15:54 | 34.85236 | 32.25384 | 7942 ft | 285 kts | 124° |
| 2026-05-05 15:54 | 34.84090 | 32.27433 | 7624 ft | 283 kts | 124° |
| 2026-05-05 15:54 | 34.82976 | 32.29429 | 7317 ft | 281 kts | 124° |
| 2026-05-05 15:54 | 34.81864 | 32.31421 | 7010 ft | 279 kts | 124° |
| 2026-05-05 15:55 | 34.80776 | 32.33373 | 6710 ft | 277 kts | 124° |
| 2026-05-05 15:55 | 34.79682 | 32.35334 | 6407 ft | 275 kts | 124° |
| 2026-05-05 15:55 | 34.78601 | 32.37271 | 6106 ft | 273 kts | 124° |
| 2026-05-05 15:55 | 34.77519 | 32.39213 | 5807 ft | 271 kts | 124° |
| 2026-05-05 15:56 | 34.76431 | 32.41163 | 5508 ft | 270 kts | 124° |
| 2026-05-05 15:56 | 34.75365 | 32.43073 | 5218 ft | 268 kts | 124° |
| 2026-05-05 15:56 | 34.74316 | 32.44952 | 4933 ft | 266 kts | 124° |
| 2026-05-05 15:56 | 34.73264 | 32.46835 | 4640 ft | 265 kts | 124° |
| 2026-05-05 15:57 | 34.72216 | 32.48709 | 4349 ft | 264 kts | 123° |
| 2026-05-05 15:57 | 34.71163 | 32.50593 | 4059 ft | 263 kts | 122° |
| 2026-05-05 15:57 | 34.70228 | 32.52541 | 3769 ft | 261 kts | 115° |
| 2026-05-05 15:57 | 34.69523 | 32.54611 | 3484 ft | 260 kts | 107° |
| 2026-05-05 15:58 | 34.69048 | 32.56743 | 3226 ft | 256 kts | 102° |
| 2026-05-05 15:58 | 34.68567 | 32.58854 | 3018 ft | 251 kts | 107° |
| 2026-05-05 15:58 | 34.67993 | 32.60897 | 2780 ft | 246 kts | 108° |
| 2026-05-05 15:58 | 34.67321 | 32.62843 | 2434 ft | 247 kts | 124° |
| 2026-05-05 15:59 | 34.66018 | 32.64229 | 2118 ft | 243 kts | 158° |
| 2026-05-05 15:59 | 34.64393 | 32.64594 | 2085 ft | 224 kts | 188° |
| 2026-05-05 15:59 | 34.62944 | 32.64061 | 2072 ft | 206 kts | 215° |
| 2026-05-05 15:59 | 34.61921 | 32.62924 | 2147 ft | 185 kts | 238° |
| 2026-05-05 16:00 | 34.61402 | 32.61582 | 2102 ft | 160 kts | 259° |
| 2026-05-05 16:00 | 34.61300 | 32.60308 | 2066 ft | 136 kts | 277° |
| 2026-05-05 16:00 | 34.61493 | 32.59192 | 2073 ft | 131 kts | 292° |
| 2026-05-05 16:00 | 34.61923 | 32.58203 | 2082 ft | 130 kts | 307° |
| 2026-05-05 16:01 | 34.62561 | 32.57387 | 2087 ft | 130 kts | 321° |
| 2026-05-05 16:01 | 34.63340 | 32.56813 | 2091 ft | 130 kts | 332° |
| 2026-05-05 16:01 | 34.64177 | 32.56337 | 2089 ft | 130 kts | 333° |
| 2026-05-05 16:01 | 34.65011 | 32.55875 | 2088 ft | 130 kts | 333° |
| 2026-05-05 16:02 | 34.65877 | 32.55517 | 2081 ft | 132 kts | 353° |
| 2026-05-05 16:02 | 34.66814 | 32.55735 | 2097 ft | 137 kts | 18° |
| 2026-05-05 16:02 | 34.67629 | 32.56399 | 2099 ft | 142 kts | 40° |
| 2026-05-05 16:02 | 34.68225 | 32.57376 | 2096 ft | 146 kts | 60° |
| 2026-05-05 16:03 | 34.68621 | 32.58538 | 2106 ft | 146 kts | 62° |
| 2026-05-05 16:03 | 34.68961 | 32.59714 | 2092 ft | 150 kts | 84° |
| 2026-05-05 16:03 | 34.68610 | 32.60897 | 2070 ft | 155 kts | 137° |
| 2026-05-05 16:03 | 34.67609 | 32.61347 | 2058 ft | 150 kts | 192° |
| 2026-05-05 16:04 | 34.66768 | 32.60719 | 2054 ft | 139 kts | 246° |
| 2026-05-05 16:04 | 34.66709 | 32.59599 | 2063 ft | 131 kts | 297° |
| 2026-05-05 16:04 | 34.67217 | 32.58669 | 2084 ft | 130 kts | 310° |
| 2026-05-05 16:04 | 34.67837 | 32.57832 | 1815 ft | 130 kts | 312° |
| 2026-05-05 16:05 | 34.68442 | 32.56987 | 1612 ft | 127 kts | 311° |
| 2026-05-05 16:05 | 34.69070 | 32.56196 | 1356 ft | 130 kts | 312° |
| 2026-05-05 16:05 | 34.69623 | 32.55306 | 1009 ft | 127 kts | 303° |
| 2026-05-05 16:05 | 34.70035 | 32.54328 | 762 ft | 127 kts | 295° |
| 2026-05-05 16:06 | 34.70354 | 32.53304 | 587 ft | 127 kts | 291° |
| 2026-05-05 16:06 | 34.70658 | 32.52262 | 417 ft | 127 kts | 292° |
| 2026-05-05 16:06 | 34.70971 | 32.51225 | 297 ft | 127 kts | 294° |
| 2026-05-05 16:06 | 34.71286 | 32.50212 | 117 ft | 126 kts | 293° |
| 2026-05-05 16:07 | 34.71587 | 32.49240 | 38 ft | 93 kts | 292° |
| 2026-05-05 16:07 | 34.71728 | 32.48784 | 39 ft | 35 kts | 290° |
| 2026-05-05 16:07 | 34.71805 | 32.48510 | 44 ft | 31 kts | 285° |
| 2026-05-05 16:07 | 34.71706 | 32.48380 | 42 ft | 23 kts | 195° |
| 2026-05-05 16:08 | 34.71551 | 32.48311 | 35 ft | 21 kts | 199° |
| 2026-05-05 16:08 | 34.71410 | 32.48286 | 28 ft | 20 kts | 135° |
| 2026-05-05 16:08 | 34.71371 | 32.48394 | 27 ft | 12 kts | 108° |
| 2026-05-05 16:08 | 34.71347 | 32.48501 | 27 ft | 12 kts | 85° |
| 2026-05-05 16:09 | 34.71380 | 32.48602 | 29 ft | 12 kts | 65° |
| 2026-05-05 16:09 | 34.71410 | 32.48681 | 29 ft | 6 kts | 77° |
| 2026-05-05 16:09 | 34.71369 | 32.48724 | 26 ft | 8 kts | 156° |
| 2026-05-05 16:09 | 34.71332 | 32.48745 | 24 ft | 0 kts | 155° |
| 2026-05-05 16:10 | 34.71331 | 32.48745 | 24 ft | 0 kts | 155° |